sensor_id;sensor_type;location;lat;lon;timestamp;P1;durP1;ratioP1;P2;durP2;ratioP2
18532;SDS011;9396;51.510;11.934;2023-04-06T00:00:01;11.90;;;7.50;;
18532;SDS011;9396;51.510;11.934;2023-04-06T00:02:29;11.97;;;8.57;;
18532;SDS011;9396;51.510;11.934;2023-04-06T00:04:55;10.57;;;8.23;;
18532;SDS011;9396;51.510;11.934;2023-04-06T00:07:24;12.47;;;8.53;;
18532;SDS011;9396;51.510;11.934;2023-04-06T00:09:51;13.47;;;8.10;;
18532;SDS011;9396;51.510;11.934;2023-04-06T00:12:18;12.83;;;8.37;;
18532;SDS011;9396;51.510;11.934;2023-04-06T00:14:44;13.67;;;8.50;;
18532;SDS011;9396;51.510;11.934;2023-04-06T00:17:11;14.63;;;7.77;;
18532;SDS011;9396;51.510;11.934;2023-04-06T00:19:38;14.13;;;8.87;;
18532;SDS011;9396;51.510;11.934;2023-04-06T00:22:05;15.27;;;8.97;;
18532;SDS011;9396;51.510;11.934;2023-04-06T00:24:33;14.23;;;8.93;;
18532;SDS011;9396;51.510;11.934;2023-04-06T00:27:00;13.93;;;8.43;;
18532;SDS011;9396;51.510;11.934;2023-04-06T00:29:27;12.03;;;8.67;;
18532;SDS011;9396;51.510;11.934;2023-04-06T00:31:54;14.23;;;8.93;;
18532;SDS011;9396;51.510;11.934;2023-04-06T00:34:20;11.70;;;8.03;;
18532;SDS011;9396;51.510;11.934;2023-04-06T00:36:47;12.50;;;8.40;;
18532;SDS011;9396;51.510;11.934;2023-04-06T00:39:14;11.63;;;8.60;;
18532;SDS011;9396;51.510;11.934;2023-04-06T00:41:43;10.90;;;8.00;;
18532;SDS011;9396;51.510;11.934;2023-04-06T00:44:15;10.63;;;8.40;;
18532;SDS011;9396;51.510;11.934;2023-04-06T00:46:41;15.93;;;8.90;;
18532;SDS011;9396;51.510;11.934;2023-04-06T00:49:08;13.47;;;8.90;;
18532;SDS011;9396;51.510;11.934;2023-04-06T00:51:35;14.13;;;8.60;;
18532;SDS011;9396;51.510;11.934;2023-04-06T00:54:02;10.60;;;7.73;;
18532;SDS011;9396;51.510;11.934;2023-04-06T00:56:29;11.73;;;8.33;;
18532;SDS011;9396;51.510;11.934;2023-04-06T00:58:58;12.87;;;8.77;;
18532;SDS011;9396;51.510;11.934;2023-04-06T01:01:25;10.33;;;8.17;;
18532;SDS011;9396;51.510;11.934;2023-04-06T01:03:53;13.40;;;8.20;;
18532;SDS011;9396;51.510;11.934;2023-04-06T01:06:20;12.03;;;8.00;;
18532;SDS011;9396;51.510;11.934;2023-04-06T01:08:47;11.03;;;7.73;;
18532;SDS011;9396;51.510;11.934;2023-04-06T01:11:13;11.20;;;8.10;;
18532;SDS011;9396;51.510;11.934;2023-04-06T01:13:40;12.00;;;8.50;;
18532;SDS011;9396;51.510;11.934;2023-04-06T01:16:08;11.77;;;8.33;;
18532;SDS011;9396;51.510;11.934;2023-04-06T01:18:37;10.73;;;7.90;;
18532;SDS011;9396;51.510;11.934;2023-04-06T01:21:04;12.13;;;8.30;;
18532;SDS011;9396;51.510;11.934;2023-04-06T01:23:34;11.40;;;7.60;;
18532;SDS011;9396;51.510;11.934;2023-04-06T01:26:01;10.00;;;7.70;;
18532;SDS011;9396;51.510;11.934;2023-04-06T01:28:28;16.97;;;7.83;;
18532;SDS011;9396;51.510;11.934;2023-04-06T01:30:55;12.63;;;8.07;;
18532;SDS011;9396;51.510;11.934;2023-04-06T01:33:22;12.80;;;8.30;;
18532;SDS011;9396;51.510;11.934;2023-04-06T01:35:48;10.70;;;7.57;;
18532;SDS011;9396;51.510;11.934;2023-04-06T01:38:15;11.27;;;7.97;;
18532;SDS011;9396;51.510;11.934;2023-04-06T01:40:43;11.97;;;8.17;;
18532;SDS011;9396;51.510;11.934;2023-04-06T01:43:10;11.03;;;7.80;;
18532;SDS011;9396;51.510;11.934;2023-04-06T01:45:37;11.13;;;8.03;;
18532;SDS011;9396;51.510;11.934;2023-04-06T01:48:04;8.93;;;7.17;;
18532;SDS011;9396;51.510;11.934;2023-04-06T01:50:31;11.73;;;7.93;;
18532;SDS011;9396;51.510;11.934;2023-04-06T01:52:58;13.10;;;8.10;;
18532;SDS011;9396;51.510;11.934;2023-04-06T01:55:24;11.97;;;8.23;;
18532;SDS011;9396;51.510;11.934;2023-04-06T01:57:52;13.00;;;8.63;;
18532;SDS011;9396;51.510;11.934;2023-04-06T02:00:19;12.93;;;9.43;;
18532;SDS011;9396;51.510;11.934;2023-04-06T02:02:46;13.37;;;9.17;;
18532;SDS011;9396;51.510;11.934;2023-04-06T02:05:13;12.43;;;8.80;;
18532;SDS011;9396;51.510;11.934;2023-04-06T02:07:40;12.07;;;8.73;;
18532;SDS011;9396;51.510;11.934;2023-04-06T02:10:11;12.73;;;8.47;;
18532;SDS011;9396;51.510;11.934;2023-04-06T02:12:38;14.67;;;8.17;;
18532;SDS011;9396;51.510;11.934;2023-04-06T02:15:07;14.93;;;9.13;;
18532;SDS011;9396;51.510;11.934;2023-04-06T02:17:34;10.40;;;8.20;;
18532;SDS011;9396;51.510;11.934;2023-04-06T02:20:01;10.93;;;7.90;;
18532;SDS011;9396;51.510;11.934;2023-04-06T02:22:28;11.83;;;8.17;;
18532;SDS011;9396;51.510;11.934;2023-04-06T02:24:55;12.87;;;7.97;;
18532;SDS011;9396;51.510;11.934;2023-04-06T02:27:21;10.23;;;7.90;;
18532;SDS011;9396;51.510;11.934;2023-04-06T02:29:48;12.23;;;7.37;;
18532;SDS011;9396;51.510;11.934;2023-04-06T02:32:16;12.77;;;8.07;;
18532;SDS011;9396;51.510;11.934;2023-04-06T02:34:43;12.13;;;7.70;;
18532;SDS011;9396;51.510;11.934;2023-04-06T02:37:10;9.93;;;7.57;;
18532;SDS011;9396;51.510;11.934;2023-04-06T02:39:37;12.57;;;8.00;;
18532;SDS011;9396;51.510;11.934;2023-04-06T02:42:03;12.37;;;8.30;;
18532;SDS011;9396;51.510;11.934;2023-04-06T02:44:30;10.83;;;7.63;;
18532;SDS011;9396;51.510;11.934;2023-04-06T02:46:57;10.47;;;8.13;;
18532;SDS011;9396;51.510;11.934;2023-04-06T02:49:25;10.83;;;7.53;;
18532;SDS011;9396;51.510;11.934;2023-04-06T02:51:52;10.80;;;8.17;;
18532;SDS011;9396;51.510;11.934;2023-04-06T02:54:18;11.83;;;7.53;;
18532;SDS011;9396;51.510;11.934;2023-04-06T02:56:45;12.73;;;7.30;;
18532;SDS011;9396;51.510;11.934;2023-04-06T02:59:12;10.80;;;7.73;;
18532;SDS011;9396;51.510;11.934;2023-04-06T03:01:39;12.30;;;7.50;;
18532;SDS011;9396;51.510;11.934;2023-04-06T03:04:05;9.23;;;7.53;;
18532;SDS011;9396;51.510;11.934;2023-04-06T03:06:33;12.43;;;8.33;;
18532;SDS011;9396;51.510;11.934;2023-04-06T03:09:00;11.43;;;7.77;;
18532;SDS011;9396;51.510;11.934;2023-04-06T03:11:27;10.53;;;7.67;;
18532;SDS011;9396;51.510;11.934;2023-04-06T03:13:54;12.13;;;8.73;;
18532;SDS011;9396;51.510;11.934;2023-04-06T03:16:20;9.80;;;8.10;;
18532;SDS011;9396;51.510;11.934;2023-04-06T03:18:47;10.20;;;7.90;;
18532;SDS011;9396;51.510;11.934;2023-04-06T03:21:14;11.67;;;7.77;;
18532;SDS011;9396;51.510;11.934;2023-04-06T03:23:42;12.70;;;8.30;;
18532;SDS011;9396;51.510;11.934;2023-04-06T03:26:09;13.30;;;7.53;;
18532;SDS011;9396;51.510;11.934;2023-04-06T03:28:36;12.73;;;7.70;;
18532;SDS011;9396;51.510;11.934;2023-04-06T03:31:03;11.63;;;7.93;;
18532;SDS011;9396;51.510;11.934;2023-04-06T03:33:30;9.27;;;7.40;;
18532;SDS011;9396;51.510;11.934;2023-04-06T03:35:56;10.13;;;7.17;;
18532;SDS011;9396;51.510;11.934;2023-04-06T03:38:23;9.90;;;7.33;;
18532;SDS011;9396;51.510;11.934;2023-04-06T03:40:51;10.87;;;7.77;;
18532;SDS011;9396;51.510;11.934;2023-04-06T03:43:18;14.93;;;7.53;;
18532;SDS011;9396;51.510;11.934;2023-04-06T03:45:44;10.60;;;7.63;;
18532;SDS011;9396;51.510;11.934;2023-04-06T03:48:11;12.93;;;7.60;;
18532;SDS011;9396;51.510;11.934;2023-04-06T03:50:38;12.80;;;7.63;;
18532;SDS011;9396;51.510;11.934;2023-04-06T03:53:05;13.83;;;7.43;;
18532;SDS011;9396;51.510;11.934;2023-04-06T03:55:31;10.30;;;7.00;;
18532;SDS011;9396;51.510;11.934;2023-04-06T03:58:00;13.33;;;8.50;;
18532;SDS011;9396;51.510;11.934;2023-04-06T04:00:27;11.80;;;7.33;;
18532;SDS011;9396;51.510;11.934;2023-04-06T04:02:54;12.83;;;7.87;;
18532;SDS011;9396;51.510;11.934;2023-04-06T04:05:21;15.90;;;7.97;;
18532;SDS011;9396;51.510;11.934;2023-04-06T04:07:50;12.47;;;7.97;;
18532;SDS011;9396;51.510;11.934;2023-04-06T04:10:17;12.67;;;8.03;;
18532;SDS011;9396;51.510;11.934;2023-04-06T04:12:43;15.40;;;7.87;;
18532;SDS011;9396;51.510;11.934;2023-04-06T04:15:12;10.17;;;7.53;;
18532;SDS011;9396;51.510;11.934;2023-04-06T04:17:38;10.33;;;7.60;;
18532;SDS011;9396;51.510;11.934;2023-04-06T04:20:06;10.33;;;7.43;;
18532;SDS011;9396;51.510;11.934;2023-04-06T04:22:33;11.40;;;8.20;;
18532;SDS011;9396;51.510;11.934;2023-04-06T04:25:00;11.40;;;8.13;;
18532;SDS011;9396;51.510;11.934;2023-04-06T04:27:27;12.80;;;7.67;;
18532;SDS011;9396;51.510;11.934;2023-04-06T04:29:53;10.87;;;6.93;;
18532;SDS011;9396;51.510;11.934;2023-04-06T04:32:21;12.53;;;8.43;;
18532;SDS011;9396;51.510;11.934;2023-04-06T04:34:52;9.67;;;7.47;;
18532;SDS011;9396;51.510;11.934;2023-04-06T04:37:18;13.20;;;7.90;;
18532;SDS011;9396;51.510;11.934;2023-04-06T04:39:45;10.87;;;8.10;;
18532;SDS011;9396;51.510;11.934;2023-04-06T04:42:13;12.30;;;7.97;;
18532;SDS011;9396;51.510;11.934;2023-04-06T04:44:40;11.13;;;7.93;;
18532;SDS011;9396;51.510;11.934;2023-04-06T04:47:07;14.40;;;8.27;;
18532;SDS011;9396;51.510;11.934;2023-04-06T04:49:35;10.83;;;8.47;;
18532;SDS011;9396;51.510;11.934;2023-04-06T04:52:02;11.57;;;8.43;;
18532;SDS011;9396;51.510;11.934;2023-04-06T04:54:28;10.87;;;7.93;;
18532;SDS011;9396;51.510;11.934;2023-04-06T04:56:55;15.17;;;8.13;;
18532;SDS011;9396;51.510;11.934;2023-04-06T04:59:22;12.30;;;8.67;;
18532;SDS011;9396;51.510;11.934;2023-04-06T05:01:49;11.20;;;7.93;;
18532;SDS011;9396;51.510;11.934;2023-04-06T05:04:15;10.97;;;8.47;;
18532;SDS011;9396;51.510;11.934;2023-04-06T05:06:43;12.10;;;8.83;;
18532;SDS011;9396;51.510;11.934;2023-04-06T05:09:10;11.83;;;8.13;;
18532;SDS011;9396;51.510;11.934;2023-04-06T05:11:37;10.77;;;8.83;;
18532;SDS011;9396;51.510;11.934;2023-04-06T05:14:03;10.80;;;8.63;;
18532;SDS011;9396;51.510;11.934;2023-04-06T05:16:31;10.03;;;8.17;;
18532;SDS011;9396;51.510;11.934;2023-04-06T05:18:58;11.60;;;8.60;;
18532;SDS011;9396;51.510;11.934;2023-04-06T05:21:25;16.17;;;8.90;;
18532;SDS011;9396;51.510;11.934;2023-04-06T05:23:54;12.30;;;8.57;;
18532;SDS011;9396;51.510;11.934;2023-04-06T05:26:21;13.73;;;8.90;;
18532;SDS011;9396;51.510;11.934;2023-04-06T05:28:48;12.57;;;8.83;;
18532;SDS011;9396;51.510;11.934;2023-04-06T05:31:14;13.53;;;9.47;;
18532;SDS011;9396;51.510;11.934;2023-04-06T05:33:41;12.63;;;9.00;;
18532;SDS011;9396;51.510;11.934;2023-04-06T05:36:08;14.50;;;9.07;;
18532;SDS011;9396;51.510;11.934;2023-04-06T05:38:35;12.40;;;9.20;;
18532;SDS011;9396;51.510;11.934;2023-04-06T05:41:03;13.00;;;9.10;;
18532;SDS011;9396;51.510;11.934;2023-04-06T05:43:30;12.53;;;8.13;;
18532;SDS011;9396;51.510;11.934;2023-04-06T05:45:57;12.57;;;8.47;;
18532;SDS011;9396;51.510;11.934;2023-04-06T05:48:24;14.23;;;9.43;;
18532;SDS011;9396;51.510;11.934;2023-04-06T05:50:51;11.57;;;9.23;;
18532;SDS011;9396;51.510;11.934;2023-04-06T05:53:18;13.53;;;9.93;;
18532;SDS011;9396;51.510;11.934;2023-04-06T05:55:46;12.53;;;9.53;;
18532;SDS011;9396;51.510;11.934;2023-04-06T05:58:14;14.77;;;9.43;;
18532;SDS011;9396;51.510;11.934;2023-04-06T06:00:42;15.60;;;8.50;;
18532;SDS011;9396;51.510;11.934;2023-04-06T06:03:10;12.97;;;8.23;;
18532;SDS011;9396;51.510;11.934;2023-04-06T06:05:38;11.93;;;8.00;;
18532;SDS011;9396;51.510;11.934;2023-04-06T06:08:05;9.00;;;7.90;;
18532;SDS011;9396;51.510;11.934;2023-04-06T06:10:32;10.43;;;7.37;;
18532;SDS011;9396;51.510;11.934;2023-04-06T06:12:58;10.07;;;7.80;;
18532;SDS011;9396;51.510;11.934;2023-04-06T06:15:26;11.03;;;7.20;;
18532;SDS011;9396;51.510;11.934;2023-04-06T06:17:53;7.97;;;6.47;;
18532;SDS011;9396;51.510;11.934;2023-04-06T06:20:20;8.97;;;6.87;;
18532;SDS011;9396;51.510;11.934;2023-04-06T06:22:47;10.17;;;6.63;;
18532;SDS011;9396;51.510;11.934;2023-04-06T06:25:13;11.67;;;7.37;;
18532;SDS011;9396;51.510;11.934;2023-04-06T06:27:40;11.47;;;7.90;;
18532;SDS011;9396;51.510;11.934;2023-04-06T06:30:08;9.57;;;7.50;;
18532;SDS011;9396;51.510;11.934;2023-04-06T06:32:36;11.37;;;8.50;;
18532;SDS011;9396;51.510;11.934;2023-04-06T06:35:03;10.47;;;7.90;;
18532;SDS011;9396;51.510;11.934;2023-04-06T06:37:30;13.83;;;8.43;;
18532;SDS011;9396;51.510;11.934;2023-04-06T06:39:57;10.23;;;7.83;;
18532;SDS011;9396;51.510;11.934;2023-04-06T06:42:24;12.00;;;7.50;;
18532;SDS011;9396;51.510;11.934;2023-04-06T06:44:51;12.60;;;7.83;;
18532;SDS011;9396;51.510;11.934;2023-04-06T06:47:18;8.67;;;6.97;;
18532;SDS011;9396;51.510;11.934;2023-04-06T06:49:46;10.13;;;7.20;;
18532;SDS011;9396;51.510;11.934;2023-04-06T06:52:13;10.80;;;7.30;;
18532;SDS011;9396;51.510;11.934;2023-04-06T06:54:40;15.57;;;7.57;;
18532;SDS011;9396;51.510;11.934;2023-04-06T06:57:06;14.87;;;6.93;;
18532;SDS011;9396;51.510;11.934;2023-04-06T06:59:33;11.40;;;6.97;;
18532;SDS011;9396;51.510;11.934;2023-04-06T07:02:00;15.40;;;7.10;;
18532;SDS011;9396;51.510;11.934;2023-04-06T07:04:26;10.83;;;6.63;;
18532;SDS011;9396;51.510;11.934;2023-04-06T07:06:55;12.50;;;7.00;;
18532;SDS011;9396;51.510;11.934;2023-04-06T07:09:21;13.03;;;6.93;;
18532;SDS011;9396;51.510;11.934;2023-04-06T07:11:48;8.93;;;7.00;;
18532;SDS011;9396;51.510;11.934;2023-04-06T07:14:15;9.67;;;6.93;;
18532;SDS011;9396;51.510;11.934;2023-04-06T07:16:42;15.87;;;7.57;;
18532;SDS011;9396;51.510;11.934;2023-04-06T07:19:10;11.10;;;6.50;;
18532;SDS011;9396;51.510;11.934;2023-04-06T07:21:36;9.23;;;5.93;;
18532;SDS011;9396;51.510;11.934;2023-04-06T07:24:05;9.50;;;6.00;;
18532;SDS011;9396;51.510;11.934;2023-04-06T07:26:32;6.80;;;5.50;;
18532;SDS011;9396;51.510;11.934;2023-04-06T07:28:59;22.80;;;6.43;;
18532;SDS011;9396;51.510;11.934;2023-04-06T07:31:25;7.80;;;4.93;;
18532;SDS011;9396;51.510;11.934;2023-04-06T07:33:52;12.97;;;8.00;;
18532;SDS011;9396;51.510;11.934;2023-04-06T07:36:19;7.70;;;5.00;;
18532;SDS011;9396;51.510;11.934;2023-04-06T07:38:46;6.00;;;4.57;;
18532;SDS011;9396;51.510;11.934;2023-04-06T07:41:15;6.93;;;5.30;;
18532;SDS011;9396;51.510;11.934;2023-04-06T07:43:42;6.63;;;4.90;;
18532;SDS011;9396;51.510;11.934;2023-04-06T07:46:08;6.57;;;4.50;;
18532;SDS011;9396;51.510;11.934;2023-04-06T07:48:35;6.27;;;5.30;;
18532;SDS011;9396;51.510;11.934;2023-04-06T07:51:03;5.80;;;4.70;;
18532;SDS011;9396;51.510;11.934;2023-04-06T07:53:31;7.30;;;4.90;;
18532;SDS011;9396;51.510;11.934;2023-04-06T07:55:58;7.03;;;5.50;;
18532;SDS011;9396;51.510;11.934;2023-04-06T07:58:26;6.67;;;5.47;;
18532;SDS011;9396;51.510;11.934;2023-04-06T08:00:53;9.20;;;5.83;;
18532;SDS011;9396;51.510;11.934;2023-04-06T08:03:20;9.03;;;5.17;;
18532;SDS011;9396;51.510;11.934;2023-04-06T08:05:50;7.77;;;6.10;;
18532;SDS011;9396;51.510;11.934;2023-04-06T08:08:17;6.23;;;5.00;;
18532;SDS011;9396;51.510;11.934;2023-04-06T08:10:44;6.93;;;5.17;;
18532;SDS011;9396;51.510;11.934;2023-04-06T08:13:11;6.57;;;4.83;;
18532;SDS011;9396;51.510;11.934;2023-04-06T08:15:39;8.00;;;5.40;;
18532;SDS011;9396;51.510;11.934;2023-04-06T08:18:06;6.70;;;5.33;;
18532;SDS011;9396;51.510;11.934;2023-04-06T08:20:33;5.77;;;4.57;;
18532;SDS011;9396;51.510;11.934;2023-04-06T08:23:00;8.57;;;5.50;;
18532;SDS011;9396;51.510;11.934;2023-04-06T08:25:27;6.07;;;5.10;;
18532;SDS011;9396;51.510;11.934;2023-04-06T08:27:53;7.50;;;5.27;;
18532;SDS011;9396;51.510;11.934;2023-04-06T08:30:20;9.13;;;6.23;;
18532;SDS011;9396;51.510;11.934;2023-04-06T08:32:49;8.33;;;5.17;;
18532;SDS011;9396;51.510;11.934;2023-04-06T08:35:16;7.30;;;5.17;;
18532;SDS011;9396;51.510;11.934;2023-04-06T08:37:42;7.87;;;5.20;;
18532;SDS011;9396;51.510;11.934;2023-04-06T08:40:09;6.43;;;4.60;;
18532;SDS011;9396;51.510;11.934;2023-04-06T08:42:39;6.93;;;4.20;;
18532;SDS011;9396;51.510;11.934;2023-04-06T08:45:07;7.00;;;4.73;;
18532;SDS011;9396;51.510;11.934;2023-04-06T08:47:35;6.07;;;4.90;;
18532;SDS011;9396;51.510;11.934;2023-04-06T08:50:04;10.17;;;4.93;;
18532;SDS011;9396;51.510;11.934;2023-04-06T08:52:32;6.90;;;4.97;;
18532;SDS011;9396;51.510;11.934;2023-04-06T08:54:59;5.30;;;4.33;;
18532;SDS011;9396;51.510;11.934;2023-04-06T08:57:26;7.37;;;4.77;;
18532;SDS011;9396;51.510;11.934;2023-04-06T08:59:53;7.50;;;5.10;;
18532;SDS011;9396;51.510;11.934;2023-04-06T09:02:22;8.60;;;4.93;;
18532;SDS011;9396;51.510;11.934;2023-04-06T09:04:52;7.10;;;5.00;;
18532;SDS011;9396;51.510;11.934;2023-04-06T09:07:21;8.77;;;5.03;;
18532;SDS011;9396;51.510;11.934;2023-04-06T09:09:49;7.27;;;4.97;;
18532;SDS011;9396;51.510;11.934;2023-04-06T09:12:23;7.20;;;5.53;;
18532;SDS011;9396;51.510;11.934;2023-04-06T09:14:51;10.00;;;4.97;;
18532;SDS011;9396;51.510;11.934;2023-04-06T09:17:21;8.60;;;5.60;;
18532;SDS011;9396;51.510;11.934;2023-04-06T09:19:48;7.27;;;5.03;;
18532;SDS011;9396;51.510;11.934;2023-04-06T09:22:16;8.07;;;6.10;;
18532;SDS011;9396;51.510;11.934;2023-04-06T09:24:44;9.40;;;5.50;;
18532;SDS011;9396;51.510;11.934;2023-04-06T09:27:12;9.80;;;6.70;;
18532;SDS011;9396;51.510;11.934;2023-04-06T09:29:40;9.30;;;6.17;;
18532;SDS011;9396;51.510;11.934;2023-04-06T09:32:07;8.27;;;6.50;;
18532;SDS011;9396;51.510;11.934;2023-04-06T09:34:36;10.10;;;6.53;;
18532;SDS011;9396;51.510;11.934;2023-04-06T09:37:11;11.30;;;6.10;;
18532;SDS011;9396;51.510;11.934;2023-04-06T09:39:39;13.97;;;6.20;;
18532;SDS011;9396;51.510;11.934;2023-04-06T09:42:07;8.43;;;5.63;;
18532;SDS011;9396;51.510;11.934;2023-04-06T09:44:34;9.10;;;5.67;;
18532;SDS011;9396;51.510;11.934;2023-04-06T09:47:01;8.20;;;6.10;;
18532;SDS011;9396;51.510;11.934;2023-04-06T09:49:33;11.30;;;6.17;;
18532;SDS011;9396;51.510;11.934;2023-04-06T09:52:02;9.07;;;5.60;;
18532;SDS011;9396;51.510;11.934;2023-04-06T09:54:30;7.70;;;5.90;;
18532;SDS011;9396;51.510;11.934;2023-04-06T09:56:58;7.33;;;5.50;;
18532;SDS011;9396;51.510;11.934;2023-04-06T09:59:39;8.73;;;6.07;;
18532;SDS011;9396;51.510;11.934;2023-04-06T10:02:15;7.77;;;5.03;;
18532;SDS011;9396;51.510;11.934;2023-04-06T10:04:49;6.60;;;4.43;;
18532;SDS011;9396;51.510;11.934;2023-04-06T10:07:22;9.27;;;5.40;;
18532;SDS011;9396;51.510;11.934;2023-04-06T10:09:50;10.17;;;5.23;;
18532;SDS011;9396;51.510;11.934;2023-04-06T10:12:20;9.97;;;5.53;;
18532;SDS011;9396;51.510;11.934;2023-04-06T10:14:48;9.67;;;5.70;;
18532;SDS011;9396;51.510;11.934;2023-04-06T10:17:15;8.37;;;4.77;;
18532;SDS011;9396;51.510;11.934;2023-04-06T10:19:44;8.30;;;5.47;;
18532;SDS011;9396;51.510;11.934;2023-04-06T10:22:18;7.93;;;4.90;;
18532;SDS011;9396;51.510;11.934;2023-04-06T10:24:50;8.73;;;5.20;;
18532;SDS011;9396;51.510;11.934;2023-04-06T10:27:26;8.23;;;4.80;;
18532;SDS011;9396;51.510;11.934;2023-04-06T10:30:00;8.53;;;4.77;;
18532;SDS011;9396;51.510;11.934;2023-04-06T10:32:31;7.53;;;4.27;;
18532;SDS011;9396;51.510;11.934;2023-04-06T10:35:04;6.50;;;4.43;;
18532;SDS011;9396;51.510;11.934;2023-04-06T10:37:45;7.33;;;4.77;;
18532;SDS011;9396;51.510;11.934;2023-04-06T10:40:17;6.57;;;4.33;;
18532;SDS011;9396;51.510;11.934;2023-04-06T10:42:51;6.60;;;4.50;;
18532;SDS011;9396;51.510;11.934;2023-04-06T10:45:20;6.47;;;4.33;;
18532;SDS011;9396;51.510;11.934;2023-04-06T10:47:48;6.57;;;4.53;;
18532;SDS011;9396;51.510;11.934;2023-04-06T10:50:18;6.90;;;4.80;;
18532;SDS011;9396;51.510;11.934;2023-04-06T10:52:45;7.80;;;4.43;;
18532;SDS011;9396;51.510;11.934;2023-04-06T10:55:12;7.70;;;4.40;;
18532;SDS011;9396;51.510;11.934;2023-04-06T10:57:40;7.10;;;4.73;;
18532;SDS011;9396;51.510;11.934;2023-04-06T11:00:07;6.80;;;4.47;;
18532;SDS011;9396;51.510;11.934;2023-04-06T11:02:37;7.17;;;4.50;;
18532;SDS011;9396;51.510;11.934;2023-04-06T11:05:04;6.03;;;4.53;;
18532;SDS011;9396;51.510;11.934;2023-04-06T11:07:31;6.00;;;4.10;;
18532;SDS011;9396;51.510;11.934;2023-04-06T11:09:58;7.70;;;4.40;;
18532;SDS011;9396;51.510;11.934;2023-04-06T11:12:27;6.43;;;4.60;;
18532;SDS011;9396;51.510;11.934;2023-04-06T11:14:55;6.37;;;4.50;;
18532;SDS011;9396;51.510;11.934;2023-04-06T11:17:27;6.43;;;4.00;;
18532;SDS011;9396;51.510;11.934;2023-04-06T11:19:56;6.63;;;4.40;;
18532;SDS011;9396;51.510;11.934;2023-04-06T11:22:23;6.07;;;5.10;;
18532;SDS011;9396;51.510;11.934;2023-04-06T11:24:50;7.87;;;5.10;;
18532;SDS011;9396;51.510;11.934;2023-04-06T11:27:17;7.03;;;4.83;;
18532;SDS011;9396;51.510;11.934;2023-04-06T11:29:45;5.93;;;4.17;;
18532;SDS011;9396;51.510;11.934;2023-04-06T11:32:19;5.37;;;4.00;;
18532;SDS011;9396;51.510;11.934;2023-04-06T11:34:47;8.73;;;4.33;;
18532;SDS011;9396;51.510;11.934;2023-04-06T11:37:15;5.13;;;3.97;;
18532;SDS011;9396;51.510;11.934;2023-04-06T11:39:43;5.77;;;4.17;;
18532;SDS011;9396;51.510;11.934;2023-04-06T11:42:20;5.77;;;4.10;;
18532;SDS011;9396;51.510;11.934;2023-04-06T11:44:49;6.40;;;4.23;;
18532;SDS011;9396;51.510;11.934;2023-04-06T11:47:17;6.67;;;4.20;;
18532;SDS011;9396;51.510;11.934;2023-04-06T11:49:45;4.97;;;3.60;;
18532;SDS011;9396;51.510;11.934;2023-04-06T11:52:17;5.27;;;3.77;;
18532;SDS011;9396;51.510;11.934;2023-04-06T11:54:44;5.27;;;3.60;;
18532;SDS011;9396;51.510;11.934;2023-04-06T11:57:12;7.07;;;3.83;;
18532;SDS011;9396;51.510;11.934;2023-04-06T11:59:39;8.90;;;4.33;;
18532;SDS011;9396;51.510;11.934;2023-04-06T12:02:05;6.57;;;4.43;;
18532;SDS011;9396;51.510;11.934;2023-04-06T12:04:32;9.20;;;4.73;;
18532;SDS011;9396;51.510;11.934;2023-04-06T12:06:59;6.47;;;4.20;;
18532;SDS011;9396;51.510;11.934;2023-04-06T12:09:27;6.60;;;3.50;;
18532;SDS011;9396;51.510;11.934;2023-04-06T12:11:54;6.60;;;4.30;;
18532;SDS011;9396;51.510;11.934;2023-04-06T12:14:21;6.80;;;4.30;;
18532;SDS011;9396;51.510;11.934;2023-04-06T12:16:48;4.33;;;3.63;;
18532;SDS011;9396;51.510;11.934;2023-04-06T12:19:15;8.93;;;4.07;;
18532;SDS011;9396;51.510;11.934;2023-04-06T12:21:42;5.40;;;3.60;;
18532;SDS011;9396;51.510;11.934;2023-04-06T12:24:08;3.23;;;2.80;;
18532;SDS011;9396;51.510;11.934;2023-04-06T12:26:36;7.00;;;4.17;;
18532;SDS011;9396;51.510;11.934;2023-04-06T12:29:03;6.30;;;4.20;;
18532;SDS011;9396;51.510;11.934;2023-04-06T12:31:32;5.13;;;4.07;;
18532;SDS011;9396;51.510;11.934;2023-04-06T12:33:59;6.27;;;3.50;;
18532;SDS011;9396;51.510;11.934;2023-04-06T12:36:27;5.00;;;3.40;;
18532;SDS011;9396;51.510;11.934;2023-04-06T12:38:54;7.03;;;4.07;;
18532;SDS011;9396;51.510;11.934;2023-04-06T12:41:21;4.57;;;3.40;;
18532;SDS011;9396;51.510;11.934;2023-04-06T12:43:49;5.20;;;3.80;;
18532;SDS011;9396;51.510;11.934;2023-04-06T12:46:16;6.20;;;3.17;;
18532;SDS011;9396;51.510;11.934;2023-04-06T12:48:43;6.10;;;4.37;;
18532;SDS011;9396;51.510;11.934;2023-04-06T12:51:10;6.13;;;4.10;;
18532;SDS011;9396;51.510;11.934;2023-04-06T12:53:36;4.93;;;3.70;;
18532;SDS011;9396;51.510;11.934;2023-04-06T12:56:12;5.13;;;3.83;;
18532;SDS011;9396;51.510;11.934;2023-04-06T12:58:40;7.93;;;3.90;;
18532;SDS011;9396;51.510;11.934;2023-04-06T13:01:08;5.53;;;3.93;;
18532;SDS011;9396;51.510;11.934;2023-04-06T13:03:36;6.50;;;4.10;;
18532;SDS011;9396;51.510;11.934;2023-04-06T13:06:03;7.43;;;3.80;;
18532;SDS011;9396;51.510;11.934;2023-04-06T13:08:30;6.53;;;3.60;;
18532;SDS011;9396;51.510;11.934;2023-04-06T13:10:57;5.90;;;3.80;;
18532;SDS011;9396;51.510;11.934;2023-04-06T13:13:24;4.73;;;2.80;;
18532;SDS011;9396;51.510;11.934;2023-04-06T13:15:52;9.57;;;3.90;;
18532;SDS011;9396;51.510;11.934;2023-04-06T13:18:21;7.47;;;3.97;;
18532;SDS011;9396;51.510;11.934;2023-04-06T13:20:49;5.33;;;3.67;;
18532;SDS011;9396;51.510;11.934;2023-04-06T13:23:15;5.47;;;3.73;;
18532;SDS011;9396;51.510;11.934;2023-04-06T13:25:42;5.03;;;3.70;;
18532;SDS011;9396;51.510;11.934;2023-04-06T13:28:09;5.93;;;4.00;;
18532;SDS011;9396;51.510;11.934;2023-04-06T13:30:37;5.07;;;4.07;;
18532;SDS011;9396;51.510;11.934;2023-04-06T13:33:04;4.50;;;3.17;;
18532;SDS011;9396;51.510;11.934;2023-04-06T13:35:32;4.20;;;3.10;;
18532;SDS011;9396;51.510;11.934;2023-04-06T13:38:00;7.37;;;3.63;;
18532;SDS011;9396;51.510;11.934;2023-04-06T13:40:27;5.50;;;3.93;;
18532;SDS011;9396;51.510;11.934;2023-04-06T13:42:54;5.73;;;4.23;;
18532;SDS011;9396;51.510;11.934;2023-04-06T13:45:21;9.87;;;3.57;;
18532;SDS011;9396;51.510;11.934;2023-04-06T13:47:47;4.70;;;3.53;;
18532;SDS011;9396;51.510;11.934;2023-04-06T13:50:14;6.33;;;3.83;;
18532;SDS011;9396;51.510;11.934;2023-04-06T13:52:42;3.37;;;3.07;;
18532;SDS011;9396;51.510;11.934;2023-04-06T13:55:09;5.07;;;3.30;;
18532;SDS011;9396;51.510;11.934;2023-04-06T13:57:36;4.67;;;3.33;;
18532;SDS011;9396;51.510;11.934;2023-04-06T14:00:03;5.50;;;3.70;;
18532;SDS011;9396;51.510;11.934;2023-04-06T14:02:31;5.33;;;3.47;;
18532;SDS011;9396;51.510;11.934;2023-04-06T14:04:58;3.97;;;3.50;;
18532;SDS011;9396;51.510;11.934;2023-04-06T14:07:24;5.83;;;3.53;;
18532;SDS011;9396;51.510;11.934;2023-04-06T14:09:52;5.30;;;3.60;;
18532;SDS011;9396;51.510;11.934;2023-04-06T14:12:19;5.53;;;3.00;;
18532;SDS011;9396;51.510;11.934;2023-04-06T14:14:45;6.90;;;3.17;;
18532;SDS011;9396;51.510;11.934;2023-04-06T14:17:12;5.50;;;3.47;;
18532;SDS011;9396;51.510;11.934;2023-04-06T14:19:39;3.87;;;3.00;;
18532;SDS011;9396;51.510;11.934;2023-04-06T14:22:05;4.60;;;2.73;;
18532;SDS011;9396;51.510;11.934;2023-04-06T14:24:33;5.83;;;3.27;;
18532;SDS011;9396;51.510;11.934;2023-04-06T14:27:02;5.50;;;3.73;;
18532;SDS011;9396;51.510;11.934;2023-04-06T14:29:29;6.47;;;3.60;;
18532;SDS011;9396;51.510;11.934;2023-04-06T14:31:55;5.23;;;3.30;;
18532;SDS011;9396;51.510;11.934;2023-04-06T14:34:25;3.27;;;2.90;;
18532;SDS011;9396;51.510;11.934;2023-04-06T14:36:51;4.47;;;3.23;;
18532;SDS011;9396;51.510;11.934;2023-04-06T14:39:18;5.67;;;3.70;;
18532;SDS011;9396;51.510;11.934;2023-04-06T14:41:45;5.93;;;3.60;;